EDOJ weather

Lüsse Airport
Lüsse, Brandenburg, Germany

Public forecast

Using degrees Celsius for public forecast. Weather courtesy of forecast.io.

METAR (pilot weather report)

Closest report is Holzdorf Air Base, 29.1 nm (54.0 km) SE. Retrieved 2019/09/21 01:20 UTC (9 minutes ago):

ETSH 210120Z 11001KT 9999 FEW350 04/03 Q1025 BLU+

TAF (pilot weather forecast)

Forecast is more than 12 hours old.

Closest forecast is Holzdorf Air Base, 29.1 nm (54.0 km) SE. Retrieved 2019/06/12 13:31 UTC (3 months ago):

TAF ETSH 121324Z 1213/1313 15010KT 9999 NSW FEW070 BECMG 1214/1216 26008G18KT 9999 NSW BKN050 TEMPO 1214/1217 27015G35KT 2000 TSRA BKN010 BKN050CB PROB30 1217/1223 27020G45KT 1000 TSRAGR BKN005 BKN040CB